Time;durP1;ratioP1;P1;durP2;ratioP2;P2;SDS_P1;SDS_P2;PMS_P1;PMS_P2;Temp;Humidity;BMP_temperature;BMP_pressure;BME280_temperature;BME280_humidity;BME280_pressure;Samples;Min_cycle;Max_cycle;Signal;HPM_P1;HPM_P2
2023/04/18 00:01:02;;;;;;;19.20;10.70;;;;;;;;;;5039193;28;20048;-70
2023/04/18 00:03:28;;;;;;;16.05;10.43;;;;;;;;;;5055203;28;20415;-70
2023/04/18 00:05:55;;;;;;;18.50;11.02;;;;;;;;;;5057507;28;20147;-70
2023/04/18 00:08:21;;;;;;;20.23;11.82;;;;;;;;;;5054257;28;20044;-65
2023/04/18 00:10:47;;;;;;;20.98;12.15;;;;;;;;;;5056542;28;20045;-69
2023/04/18 00:13:17;;;;;;;20.10;12.00;;;;;;;;;;5037522;28;20041;-69
2023/04/18 00:15:43;;;;;;;24.40;11.50;;;;;;;;;;5043391;28;20032;-69
2023/04/18 00:18:09;;;;;;;20.30;12.75;;;;;;;;;;5054769;28;20052;-69
2023/04/18 00:20:38;;;;;;;20.73;12.10;;;;;;;;;;5038652;28;20052;-70
2023/04/18 00:23:05;;;;;;;19.13;11.40;;;;;;;;;;5054146;28;20064;-70
2023/04/18 00:25:31;;;;;;;22.98;11.43;;;;;;;;;;5050550;28;20040;-70
2023/04/18 00:27:57;;;;;;;22.88;11.75;;;;;;;;;;5052648;28;20268;-69
2023/04/18 00:30:23;;;;;;;18.58;11.50;;;;;;;;;;5032319;28;20056;-69
2023/04/18 00:32:50;;;;;;;24.23;12.23;;;;;;;;;;5050465;28;20036;-70
2023/04/18 00:35:16;;;;;;;17.20;10.48;;;;;;;;;;5048234;28;20053;-70
2023/04/18 00:37:42;;;;;;;18.10;10.55;;;;;;;;;;5028828;28;20049;-70
2023/04/18 00:40:08;;;;;;;15.85;9.70;;;;;;;;;;5032770;28;20048;-70
2023/04/18 00:42:34;;;;;;;15.05;8.52;;;;;;;;;;5051316;28;20681;-70
2023/04/18 00:45:01;;;;;;;16.00;9.02;;;;;;;;;;5051226;28;20059;-70
2023/04/18 00:47:27;;;;;;;17.90;8.57;;;;;;;;;;5050826;28;20043;-69
2023/04/18 00:49:54;;;;;;;16.67;9.20;;;;;;;;;;5052512;28;20037;-70
2023/04/18 00:52:20;;;;;;;18.65;9.07;;;;;;;;;;5030511;28;20056;-69
2023/04/18 00:54:46;;;;;;;12.68;8.63;;;;;;;;;;5052204;28;20083;-70
2023/04/18 00:57:13;;;;;;;16.33;8.93;;;;;;;;;;5051614;28;20163;-70
2023/04/18 00:59:39;;;;;;;14.52;8.68;;;;;;;;;;5052096;28;20040;-69
2023/04/18 01:02:05;;;;;;;12.88;8.52;;;;;;;;;;5055382;28;20380;-69
2023/04/18 01:04:31;;;;;;;13.52;8.30;;;;;;;;;;5051925;28;20453;-70
2023/04/18 01:06:57;;;;;;;13.07;8.25;;;;;;;;;;5048324;28;20132;-70
2023/04/18 01:09:24;;;;;;;16.88;8.93;;;;;;;;;;5056178;28;20376;-70
2023/04/18 01:11:50;;;;;;;18.75;9.30;;;;;;;;;;5053536;28;20056;-70
2023/04/18 01:14:18;;;;;;;13.30;7.93;;;;;;;;;;5035143;28;20127;-70
2023/04/18 01:16:47;;;;;;;16.35;8.73;;;;;;;;;;5057306;28;20143;-70
2023/04/18 01:19:14;;;;;;;13.27;8.25;;;;;;;;;;5032720;28;20057;-70
2023/04/18 01:21:42;;;;;;;14.43;8.32;;;;;;;;;;5032223;28;20049;-70
2023/04/18 01:24:10;;;;;;;18.33;9.35;;;;;;;;;;5033328;28;20037;-70
2023/04/18 01:26:37;;;;;;;11.90;8.40;;;;;;;;;;5036311;28;20064;-70
2023/04/18 01:29:03;;;;;;;15.95;8.55;;;;;;;;;;5032193;28;20124;-70
2023/04/18 01:31:29;;;;;;;17.85;9.90;;;;;;;;;;5036820;28;20049;-70
2023/04/18 01:33:55;;;;;;;12.15;7.90;;;;;;;;;;5033568;28;20088;-70
2023/04/18 01:36:21;;;;;;;13.82;8.68;;;;;;;;;;5037749;28;20045;-70
2023/04/18 01:38:47;;;;;;;15.75;9.13;;;;;;;;;;5037992;28;20160;-70
2023/04/18 01:41:13;;;;;;;15.40;9.05;;;;;;;;;;5036338;28;20087;-70
2023/04/18 01:43:40;;;;;;;14.85;8.82;;;;;;;;;;5029516;28;20056;-70
2023/04/18 01:46:06;;;;;;;14.13;9.10;;;;;;;;;;5038781;28;20123;-70
2023/04/18 01:48:32;;;;;;;19.13;10.35;;;;;;;;;;5036589;28;20049;-70
2023/04/18 01:50:58;;;;;;;20.52;9.38;;;;;;;;;;5038210;28;20033;-70
2023/04/18 01:53:24;;;;;;;15.35;9.98;;;;;;;;;;5038569;28;20480;-70
2023/04/18 01:55:50;;;;;;;16.58;10.10;;;;;;;;;;5031078;28;20055;-70
2023/04/18 01:58:21;;;;;;;17.70;10.10;;;;;;;;;;5036846;28;20045;-70
2023/04/18 02:00:48;;;;;;;13.93;9.23;;;;;;;;;;5036444;28;20499;-70
2023/04/18 02:03:14;;;;;;;16.40;9.30;;;;;;;;;;5037182;28;20481;-70
2023/04/18 02:05:40;;;;;;;13.57;9.07;;;;;;;;;;5041171;28;20033;-70
2023/04/18 02:08:07;;;;;;;15.75;8.55;;;;;;;;;;5037316;28;20177;-70
2023/04/18 02:10:33;;;;;;;20.08;8.82;;;;;;;;;;5037698;28;20136;-70
2023/04/18 02:12:59;;;;;;;15.27;8.25;;;;;;;;;;5037516;28;20392;-70
2023/04/18 02:15:25;;;;;;;17.55;8.93;;;;;;;;;;5037729;28;20049;-70
2023/04/18 02:17:52;;;;;;;14.73;8.10;;;;;;;;;;5037333;28;20045;-70
2023/04/18 02:20:18;;;;;;;12.73;7.57;;;;;;;;;;5033983;28;20057;-70
2023/04/18 02:22:46;;;;;;;12.65;7.88;;;;;;;;;;5037794;28;20056;-70
2023/04/18 02:25:12;;;;;;;11.45;8.00;;;;;;;;;;5033066;28;20098;-70
2023/04/18 02:27:39;;;;;;;14.32;7.75;;;;;;;;;;5036051;28;20068;-70
2023/04/18 02:30:06;;;;;;;20.60;8.05;;;;;;;;;;5034322;28;20056;-70
2023/04/18 02:32:32;;;;;;;11.60;7.43;;;;;;;;;;5033705;28;20118;-70
2023/04/18 02:34:58;;;;;;;11.25;6.75;;;;;;;;;;5028509;28;20056;-70
2023/04/18 02:37:24;;;;;;;22.20;7.30;;;;;;;;;;5032398;28;20045;-70
2023/04/18 02:39:51;;;;;;;14.20;6.90;;;;;;;;;;5031564;28;20068;-70
2023/04/18 02:42:17;;;;;;;13.73;6.55;;;;;;;;;;5032946;28;20041;-70
2023/04/18 02:44:43;;;;;;;10.15;6.65;;;;;;;;;;5036991;28;20075;-70
2023/04/18 02:47:09;;;;;;;9.52;5.82;;;;;;;;;;5036626;28;20037;-70
2023/04/18 02:49:35;;;;;;;8.18;5.30;;;;;;;;;;5034987;28;20103;-70
2023/04/18 02:52:01;;;;;;;9.85;6.07;;;;;;;;;;5034869;28;20064;-70
2023/04/18 02:54:28;;;;;;;11.32;5.68;;;;;;;;;;5038017;28;20049;-70
2023/04/18 02:56:55;;;;;;;8.88;5.75;;;;;;;;;;5035479;28;20101;-70
2023/04/18 02:59:21;;;;;;;12.25;6.25;;;;;;;;;;5035366;28;20569;-70
2023/04/18 03:01:48;;;;;;;10.07;5.88;;;;;;;;;;5039048;28;20104;-70
2023/04/18 03:04:14;;;;;;;7.85;5.45;;;;;;;;;;5034101;28;20198;-70
2023/04/18 03:06:40;;;;;;;12.57;5.85;;;;;;;;;;5032384;28;20045;-70
2023/04/18 03:09:06;;;;;;;10.38;6.07;;;;;;;;;;5031115;28;20052;-70
2023/04/18 03:11:32;;;;;;;11.07;5.90;;;;;;;;;;5029479;28;20496;-70
2023/04/18 03:13:59;;;;;;;11.35;5.57;;;;;;;;;;5030263;28;20044;-70
2023/04/18 03:16:25;;;;;;;9.88;5.50;;;;;;;;;;5034025;28;20069;-70
2023/04/18 03:18:51;;;;;;;9.95;5.30;;;;;;;;;;5040408;28;20040;-70
2023/04/18 03:21:18;;;;;;;8.40;5.15;;;;;;;;;;5050032;28;20049;-70
2023/04/18 03:23:44;;;;;;;8.52;5.18;;;;;;;;;;5053326;28;20049;-70
2023/04/18 03:26:12;;;;;;;10.07;5.53;;;;;;;;;;5049209;28;20499;-70
2023/04/18 03:28:39;;;;;;;10.57;6.05;;;;;;;;;;5037026;28;20114;-70
2023/04/18 03:31:05;;;;;;;13.23;6.22;;;;;;;;;;5033119;28;20116;-70
2023/04/18 03:33:31;;;;;;;9.63;5.45;;;;;;;;;;5050072;28;20045;-70
2023/04/18 03:35:58;;;;;;;12.27;6.13;;;;;;;;;;5035295;28;20048;-70
2023/04/18 03:38:24;;;;;;;13.65;6.85;;;;;;;;;;5052442;28;20040;-70
2023/04/18 03:40:50;;;;;;;10.13;6.10;;;;;;;;;;5034471;28;20078;-70
2023/04/18 03:43:16;;;;;;;9.75;5.65;;;;;;;;;;5053209;28;20040;-70
2023/04/18 03:45:43;;;;;;;12.52;6.70;;;;;;;;;;5051660;28;20096;-70
2023/04/18 03:48:09;;;;;;;11.40;6.32;;;;;;;;;;5052428;28;20040;-70
2023/04/18 03:50:35;;;;;;;12.02;6.57;;;;;;;;;;5038351;28;20505;-70
2023/04/18 03:53:01;;;;;;;11.07;6.50;;;;;;;;;;5039997;28;20044;-70
2023/04/18 03:55:27;;;;;;;9.88;6.20;;;;;;;;;;5052762;28;20045;-69
2023/04/18 03:57:53;;;;;;;10.40;6.32;;;;;;;;;;5056668;28;20403;-70
2023/04/18 04:00:20;;;;;;;14.13;6.47;;;;;;;;;;5039932;28;21244;-70
2023/04/18 04:02:46;;;;;;;11.77;7.05;;;;;;;;;;5036851;28;20072;-70
2023/04/18 04:05:12;;;;;;;14.57;7.47;;;;;;;;;;5038533;28;20055;-70
2023/04/18 04:07:38;;;;;;;12.88;6.63;;;;;;;;;;5037238;28;20043;-70
2023/04/18 04:10:04;;;;;;;12.43;7.05;;;;;;;;;;5035317;28;20475;-70
2023/04/18 04:12:30;;;;;;;11.20;6.55;;;;;;;;;;5038951;28;20127;-70
2023/04/18 04:14:57;;;;;;;15.23;7.70;;;;;;;;;;5041516;28;20036;-70
2023/04/18 04:17:23;;;;;;;15.57;8.40;;;;;;;;;;5058730;28;20472;-70
2023/04/18 04:19:50;;;;;;;18.08;8.60;;;;;;;;;;5042578;28;20059;-70
2023/04/18 04:22:16;;;;;;;25.92;7.78;;;;;;;;;;5062039;28;20098;-70
2023/04/18 04:24:42;;;;;;;13.20;7.70;;;;;;;;;;5039350;28;20472;-70
2023/04/18 04:27:09;;;;;;;14.68;8.30;;;;;;;;;;5059627;28;20036;-70
2023/04/18 04:29:37;;;;;;;12.20;7.38;;;;;;;;;;5056918;28;20060;-70
2023/04/18 04:32:05;;;;;;;15.48;8.18;;;;;;;;;;5042306;28;20045;-70
2023/04/18 04:34:33;;;;;;;12.23;8.35;;;;;;;;;;5056162;28;20313;-70
2023/04/18 04:37:00;;;;;;;14.07;8.20;;;;;;;;;;5058791;28;20507;-70
2023/04/18 04:39:26;;;;;;;16.80;8.20;;;;;;;;;;5052814;28;21196;-69
2023/04/18 04:41:52;;;;;;;18.85;9.05;;;;;;;;;;5056761;28;20056;-69
2023/04/18 04:44:21;;;;;;;13.95;8.77;;;;;;;;;;5036000;28;20079;-69
2023/04/18 04:46:48;;;;;;;17.73;9.20;;;;;;;;;;5060004;28;20044;-70
2023/04/18 04:49:14;;;;;;;15.45;8.52;;;;;;;;;;5035469;28;20072;-70
2023/04/18 04:51:40;;;;;;;13.65;9.45;;;;;;;;;;5041007;28;20099;-70
2023/04/18 04:54:07;;;;;;;16.23;8.93;;;;;;;;;;5057367;28;20051;-70
2023/04/18 04:56:33;;;;;;;15.57;9.77;;;;;;;;;;5062835;28;20155;-70
2023/04/18 04:58:59;;;;;;;18.10;8.82;;;;;;;;;;5062157;28;20772;-70
2023/04/18 05:01:25;;;;;;;13.25;9.45;;;;;;;;;;5061824;28;20767;-70
2023/04/18 05:03:52;;;;;;;17.88;9.82;;;;;;;;;;5060391;28;20499;-70
2023/04/18 05:06:19;;;;;;;13.50;9.23;;;;;;;;;;5058468;28;20036;-70
2023/04/18 05:08:47;;;;;;;15.75;10.38;;;;;;;;;;5061755;28;20058;-70
2023/04/18 05:11:13;;;;;;;18.23;9.07;;;;;;;;;;5059116;28;20444;-70
2023/04/18 05:13:39;;;;;;;18.63;9.68;;;;;;;;;;5056204;28;20067;-70
2023/04/18 05:16:06;;;;;;;13.52;9.13;;;;;;;;;;5058664;28;20745;-70
2023/04/18 05:18:32;;;;;;;16.23;10.73;;;;;;;;;;5060135;28;20072;-70
2023/04/18 05:20:58;;;;;;;15.30;9.40;;;;;;;;;;5058033;28;20099;-70
2023/04/18 05:23:24;;;;;;;15.52;9.65;;;;;;;;;;5062431;28;20041;-70
2023/04/18 05:25:51;;;;;;;20.17;9.48;;;;;;;;;;5060909;28;20056;-70
2023/04/18 05:28:17;;;;;;;15.80;9.50;;;;;;;;;;5043421;28;20607;-70
2023/04/18 05:30:44;;;;;;;17.55;10.18;;;;;;;;;;5060725;28;20032;-70
2023/04/18 05:33:10;;;;;;;18.52;10.55;;;;;;;;;;5057791;28;20040;-70
2023/04/18 05:35:36;;;;;;;16.30;9.88;;;;;;;;;;5040506;28;20062;-70
2023/04/18 05:38:02;;;;;;;17.00;10.10;;;;;;;;;;5043198;28;20121;-70
2023/04/18 05:40:29;;;;;;;15.68;10.10;;;;;;;;;;5037520;28;20053;-70
2023/04/18 05:42:55;;;;;;;18.60;10.10;;;;;;;;;;5057623;28;20470;-70
2023/04/18 05:45:21;;;;;;;16.15;9.90;;;;;;;;;;5061682;28;20456;-70
2023/04/18 05:47:47;;;;;;;13.68;8.88;;;;;;;;;;5065315;28;20395;-70
2023/04/18 05:50:13;;;;;;;15.70;10.27;;;;;;;;;;5066046;28;20044;-70
2023/04/18 05:52:39;;;;;;;15.77;10.35;;;;;;;;;;5064021;28;20391;-69
2023/04/18 05:55:06;;;;;;;17.15;10.48;;;;;;;;;;5059303;28;20037;-70
2023/04/18 05:57:32;;;;;;;20.02;10.20;;;;;;;;;;5063843;28;20032;-70
2023/04/18 05:59:58;;;;;;;15.50;9.73;;;;;;;;;;5061121;28;20040;-70
2023/04/18 06:02:24;;;;;;;18.23;9.68;;;;;;;;;;5061055;28;20516;-70
2023/04/18 06:04:51;;;;;;;14.40;9.65;;;;;;;;;;5059976;28;20040;-70
2023/04/18 06:07:17;;;;;;;18.08;9.95;;;;;;;;;;5037737;28;20033;-76
2023/04/18 06:09:43;;;;;;;14.82;9.68;;;;;;;;;;5063794;28;20396;-70
2023/04/18 06:12:09;;;;;;;16.95;10.73;;;;;;;;;;5059754;28;20060;-69
2023/04/18 06:14:35;;;;;;;17.15;10.32;;;;;;;;;;5065327;28;20048;-70
2023/04/18 06:17:02;;;;;;;22.95;16.38;;;;;;;;;;5044543;28;20044;-70
2023/04/18 06:19:28;;;;;;;15.57;9.63;;;;;;;;;;5057814;28;20052;-68
2023/04/18 06:21:54;;;;;;;15.43;10.45;;;;;;;;;;5059175;28;21640;-69
2023/04/18 06:24:20;;;;;;;14.57;9.50;;;;;;;;;;5061717;28;20051;-68
2023/04/18 06:26:46;;;;;;;17.33;9.00;;;;;;;;;;5054396;28;20625;-69
2023/04/18 06:29:12;;;;;;;16.00;9.52;;;;;;;;;;5058993;28;20555;-74
2023/04/18 06:31:39;;;;;;;16.75;9.13;;;;;;;;;;5025431;28;20070;-68
2023/04/18 06:34:06;;;;;;;16.83;8.90;;;;;;;;;;5060516;28;20055;-70
2023/04/18 06:36:32;;;;;;;16.00;9.68;;;;;;;;;;5061476;28;20047;-69
2023/04/18 06:38:58;;;;;;;15.82;9.40;;;;;;;;;;5061939;28;20068;-70
2023/04/18 06:41:24;;;;;;;15.25;9.10;;;;;;;;;;5057033;28;20048;-69
2023/04/18 06:43:50;;;;;;;20.38;8.32;;;;;;;;;;5060239;28;20400;-69
2023/04/18 06:46:16;;;;;;;13.65;8.50;;;;;;;;;;5067706;28;20116;-70
2023/04/18 06:48:43;;;;;;;13.30;9.02;;;;;;;;;;5044958;28;20045;-69
2023/04/18 06:51:09;;;;;;;17.55;8.25;;;;;;;;;;5064919;28;20507;-65
2023/04/18 06:53:35;;;;;;;14.02;8.38;;;;;;;;;;5059414;28;20368;-69
2023/04/18 06:56:01;;;;;;;12.55;7.75;;;;;;;;;;5060862;28;20040;-69
2023/04/18 06:58:27;;;;;;;11.65;7.38;;;;;;;;;;5060211;28;20140;-69
2023/04/18 07:00:53;;;;;;;11.38;7.25;;;;;;;;;;5063392;28;21518;-69
2023/04/18 07:03:20;;;;;;;12.45;7.32;;;;;;;;;;5062745;28;20040;-69
2023/04/18 07:05:46;;;;;;;10.90;7.20;;;;;;;;;;5055813;28;20037;-70
2023/04/18 07:08:12;;;;;;;15.15;7.95;;;;;;;;;;5059249;28;20044;-68
2023/04/18 07:10:38;;;;;;;13.43;7.05;;;;;;;;;;5058344;28;20048;-68
2023/04/18 07:13:04;;;;;;;10.45;7.50;;;;;;;;;;5061680;28;20033;-68
2023/04/18 07:15:31;;;;;;;14.05;8.75;;;;;;;;;;5059970;28;20135;-68
2023/04/18 07:17:57;;;;;;;18.65;6.65;;;;;;;;;;5043745;28;20115;-69
2023/04/18 07:20:23;;;;;;;14.23;7.35;;;;;;;;;;5058278;28;20045;-68
2023/04/18 07:22:49;;;;;;;13.63;8.38;;;;;;;;;;5060915;28;20039;-68
2023/04/18 07:25:15;;;;;;;13.50;7.00;;;;;;;;;;5058705;28;20037;-68
2023/04/18 07:27:41;;;;;;;14.13;7.32;;;;;;;;;;5062680;28;20464;-68
2023/04/18 07:30:08;;;;;;;11.32;7.32;;;;;;;;;;5064272;28;20627;-68
2023/04/18 07:32:34;;;;;;;11.88;7.72;;;;;;;;;;5042527;28;20441;-68
2023/04/18 07:35:00;;;;;;;14.75;8.90;;;;;;;;;;5040566;28;20128;-68
2023/04/18 07:37:27;;;;;;;13.68;8.90;;;;;;;;;;5057863;28;20082;-70
2023/04/18 07:39:53;;;;;;;14.70;7.38;;;;;;;;;;5026036;28;20041;-68
2023/04/18 07:42:19;;;;;;;14.63;8.10;;;;;;;;;;5060216;28;20106;-76
2023/04/18 07:44:45;;;;;;;13.45;7.32;;;;;;;;;;5024224;28;20096;-67
2023/04/18 07:47:12;;;;;;;14.00;8.40;;;;;;;;;;5058213;28;20056;-68
2023/04/18 07:49:38;;;;;;;12.63;7.53;;;;;;;;;;5046442;28;20461;-68
2023/04/18 07:52:04;;;;;;;14.95;8.05;;;;;;;;;;5060569;28;20128;-68
2023/04/18 07:54:31;;;;;;;12.88;7.68;;;;;;;;;;5059636;28;20037;-68
2023/04/18 07:56:58;;;;;;;11.90;7.57;;;;;;;;;;5055622;28;20091;-68
2023/04/18 07:59:24;;;;;;;11.00;6.70;;;;;;;;;;5037282;28;20186;-68
2023/04/18 08:01:51;;;;;;;14.35;7.82;;;;;;;;;;5053939;28;20060;-68
2023/04/18 08:04:17;;;;;;;12.98;8.10;;;;;;;;;;5039146;28;20072;-68
2023/04/18 08:06:43;;;;;;;12.55;7.53;;;;;;;;;;5058278;28;20136;-68
2023/04/18 08:09:10;;;;;;;14.68;7.15;;;;;;;;;;5059425;28;20080;-68
2023/04/18 08:11:37;;;;;;;13.23;7.45;;;;;;;;;;5057221;28;20040;-67
2023/04/18 08:14:04;;;;;;;14.05;7.45;;;;;;;;;;5061767;28;20048;-68
2023/04/18 08:16:30;;;;;;;13.60;7.72;;;;;;;;;;5059756;28;20037;-68
2023/04/18 08:18:56;;;;;;;13.60;7.30;;;;;;;;;;5056873;28;20129;-68
2023/04/18 08:21:22;;;;;;;15.63;7.40;;;;;;;;;;5044068;28;20053;-68
2023/04/18 08:23:48;;;;;;;14.25;6.70;;;;;;;;;;5054934;28;20049;-66
2023/04/18 08:26:15;;;;;;;12.02;7.57;;;;;;;;;;5055070;28;20047;-67
2023/04/18 08:28:41;;;;;;;12.40;8.80;;;;;;;;;;5054473;28;20040;-67
2023/04/18 08:31:11;;;;;;;13.52;7.30;;;;;;;;;;5058940;28;20045;-66
2023/04/18 08:33:37;;;;;;;12.82;7.55;;;;;;;;;;5035509;28;20062;-67
2023/04/18 08:36:03;;;;;;;13.77;7.30;;;;;;;;;;5052004;28;20097;-67
2023/04/18 08:38:29;;;;;;;13.68;8.18;;;;;;;;;;5039429;28;20131;-68
2023/04/18 08:40:55;;;;;;;16.02;7.57;;;;;;;;;;5040175;28;20049;-68
2023/04/18 08:43:23;;;;;;;14.95;7.90;;;;;;;;;;5051989;28;20129;-67
2023/04/18 08:45:49;;;;;;;15.75;8.27;;;;;;;;;;5053939;28;20819;-68
2023/04/18 08:48:16;;;;;;;13.85;7.95;;;;;;;;;;5042976;28;20112;-68
2023/04/18 08:50:43;;;;;;;13.35;7.70;;;;;;;;;;5058736;28;20120;-68
2023/04/18 08:53:10;;;;;;;14.15;8.15;;;;;;;;;;5057731;28;20368;-67
2023/04/18 08:55:36;;;;;;;10.88;7.38;;;;;;;;;;5042608;28;20049;-68
2023/04/18 08:58:05;;;;;;;14.68;8.20;;;;;;;;;;5056006;28;20132;-68
2023/04/18 09:00:32;;;;;;;14.20;7.18;;;;;;;;;;5054980;28;20441;-68
2023/04/18 09:02:58;;;;;;;10.68;6.57;;;;;;;;;;5058502;28;20423;-68
2023/04/18 09:05:25;;;;;;;15.10;6.80;;;;;;;;;;5055860;28;20480;-69
2023/04/18 09:07:52;;;;;;;13.27;9.05;;;;;;;;;;5054584;28;20049;-68
2023/04/18 09:10:27;;;;;;;10.65;7.65;;;;;;;;;;5053620;28;20119;-68
2023/04/18 09:12:55;;;;;;;11.77;7.38;;;;;;;;;;5059217;28;20053;-68
2023/04/18 09:15:23;;;;;;;8.77;5.95;;;;;;;;;;5061225;28;20060;-68
2023/04/18 09:17:52;;;;;;;11.68;6.68;;;;;;;;;;5054514;28;20068;-68
2023/04/18 09:20:33;;;;;;;15.02;6.15;;;;;;;;;;5039348;28;20128;-68
2023/04/18 09:23:00;;;;;;;12.82;6.97;;;;;;;;;;5052353;28;20048;-68
2023/04/18 09:25:28;;;;;;;12.90;7.32;;;;;;;;;;5037817;28;20040;-68
2023/04/18 09:28:00;;;;;;;10.90;6.85;;;;;;;;;;5037637;28;20179;-68
2023/04/18 09:30:35;;;;;;;13.75;6.43;;;;;;;;;;5040911;28;20084;-68
2023/04/18 09:33:02;;;;;;;14.77;7.50;;;;;;;;;;5039767;28;20049;-68
2023/04/18 09:35:29;;;;;;;10.32;6.72;;;;;;;;;;5062879;28;20036;-67
2023/04/18 09:37:55;;;;;;;10.68;6.57;;;;;;;;;;5061061;28;20495;-68
2023/04/18 09:40:22;;;;;;;9.77;6.40;;;;;;;;;;5053954;28;20060;-68
2023/04/18 09:42:52;;;;;;;13.10;6.55;;;;;;;;;;5040318;28;20045;-68
2023/04/18 09:45:18;;;;;;;13.70;7.32;;;;;;;;;;5056554;28;21265;-67
2023/04/18 09:47:44;;;;;;;11.52;6.50;;;;;;;;;;5036320;28;20115;-68
2023/04/18 09:50:11;;;;;;;13.23;7.72;;;;;;;;;;5060544;28;20041;-67
2023/04/18 09:52:39;;;;;;;10.98;6.28;;;;;;;;;;5062368;28;20045;-67
2023/04/18 09:55:07;;;;;;;10.15;6.35;;;;;;;;;;5063229;28;20530;-67
2023/04/18 09:57:34;;;;;;;8.57;5.80;;;;;;;;;;5039247;28;20045;-67
2023/04/18 10:00:12;;;;;;;8.00;5.75;;;;;;;;;;5054912;28;20052;-68
2023/04/18 10:02:45;;;;;;;8.48;4.90;;;;;;;;;;5057437;28;20169;-67
2023/04/18 10:05:12;;;;;;;8.10;5.65;;;;;;;;;;5040789;28;20764;-68
2023/04/18 10:07:38;;;;;;;10.13;6.00;;;;;;;;;;5063402;28;20051;-67
2023/04/18 10:10:05;;;;;;;7.45;5.30;;;;;;;;;;5059195;28;20052;-67
2023/04/18 10:12:31;;;;;;;8.13;5.30;;;;;;;;;;5057498;28;20076;-68
2023/04/18 10:14:58;;;;;;;8.13;4.80;;;;;;;;;;5053911;28;20399;-68
2023/04/18 10:17:26;;;;;;;10.05;5.22;;;;;;;;;;5037571;28;20052;-68
2023/04/18 10:20:09;;;;;;;8.30;4.55;;;;;;;;;;5059732;28;20047;-68
2023/04/18 10:22:35;;;;;;;7.25;4.97;;;;;;;;;;5058532;28;20125;-68
2023/04/18 10:25:02;;;;;;;9.25;4.75;;;;;;;;;;5056066;28;20068;-68
2023/04/18 10:27:47;;;;;;;6.60;4.32;;;;;;;;;;5058731;28;20075;-68
2023/04/18 10:30:14;;;;;;;8.07;4.30;;;;;;;;;;5056876;28;20068;-68
2023/04/18 10:32:40;;;;;;;8.25;4.75;;;;;;;;;;5059964;28;20453;-68
2023/04/18 10:35:06;;;;;;;7.93;5.03;;;;;;;;;;5039104;28;20056;-68
2023/04/18 10:37:32;;;;;;;7.57;4.90;;;;;;;;;;5058119;28;20040;-68
2023/04/18 10:40:05;;;;;;;6.70;4.78;;;;;;;;;;5041581;28;20048;-68
2023/04/18 10:42:49;;;;;;;8.20;5.15;;;;;;;;;;5039410;28;20103;-68
2023/04/18 10:45:17;;;;;;;6.75;4.45;;;;;;;;;;5055497;28;20083;-68
2023/04/18 10:47:43;;;;;;;6.70;5.00;;;;;;;;;;5055124;28;20492;-68
2023/04/18 10:50:10;;;;;;;6.88;4.88;;;;;;;;;;5036832;28;20067;-68
2023/04/18 10:52:37;;;;;;;6.28;4.88;;;;;;;;;;5056427;28;20477;-68
2023/04/18 10:55:04;;;;;;;6.50;4.45;;;;;;;;;;5057511;28;20040;-68
2023/04/18 10:57:38;;;;;;;7.35;5.22;;;;;;;;;;5039218;28;20041;-68
2023/04/18 11:00:05;;;;;;;7.97;5.07;;;;;;;;;;5060127;28;20354;-68
2023/04/18 11:02:32;;;;;;;12.25;5.05;;;;;;;;;;5041240;28;20076;-68
2023/04/18 11:04:59;;;;;;;9.57;5.95;;;;;;;;;;5059139;28;20573;-68
2023/04/18 11:07:32;;;;;;;8.27;5.03;;;;;;;;;;5059440;28;20068;-68
2023/04/18 11:09:59;;;;;;;8.57;5.47;;;;;;;;;;5058241;28;20090;-68
2023/04/18 11:12:30;;;;;;;7.60;4.93;;;;;;;;;;5052623;28;20044;-68
2023/04/18 11:14:56;;;;;;;7.38;5.13;;;;;;;;;;5057316;28;20040;-68
2023/04/18 11:17:23;;;;;;;10.00;5.47;;;;;;;;;;5036791;28;20505;-68
2023/04/18 11:19:50;;;;;;;7.03;4.82;;;;;;;;;;5054619;28;20657;-68
2023/04/18 11:22:17;;;;;;;7.13;4.47;;;;;;;;;;5055701;28;20496;-65
2023/04/18 11:24:44;;;;;;;7.32;5.18;;;;;;;;;;5037297;28;20134;-68
2023/04/18 11:27:11;;;;;;;9.07;5.57;;;;;;;;;;5056873;28;20049;-68
2023/04/18 11:29:37;;;;;;;8.32;4.50;;;;;;;;;;5054443;28;20051;-68
2023/04/18 11:32:07;;;;;;;8.15;4.78;;;;;;;;;;5054490;28;20036;-68
2023/04/18 11:34:34;;;;;;;8.68;4.80;;;;;;;;;;5042969;28;20175;-68
2023/04/18 11:37:00;;;;;;;9.60;4.50;;;;;;;;;;5055880;28;20082;-68
2023/04/18 11:39:27;;;;;;;5.78;4.28;;;;;;;;;;5040426;28;20132;-68
2023/04/18 11:41:55;;;;;;;6.72;4.03;;;;;;;;;;5055972;28;20120;-68
2023/04/18 11:44:23;;;;;;;6.80;4.55;;;;;;;;;;5055731;28;20416;-68
2023/04/18 11:46:50;;;;;;;6.18;4.35;;;;;;;;;;5039568;28;20491;-68
2023/04/18 11:49:27;;;;;;;7.53;4.75;;;;;;;;;;5039722;28;20451;-68
2023/04/18 11:51:54;;;;;;;7.63;4.50;;;;;;;;;;5038020;28;20091;-68
2023/04/18 11:54:39;;;;;;;6.93;4.65;;;;;;;;;;5055309;28;20041;-68
2023/04/18 11:57:05;;;;;;;7.45;4.38;;;;;;;;;;5057985;28;20643;-68
2023/04/18 11:59:32;;;;;;;10.77;4.95;;;;;;;;;;5054640;28;20430;-68
2023/04/18 12:01:59;;;;;;;7.18;4.10;;;;;;;;;;5054867;28;20037;-65
2023/04/18 12:04:26;;;;;;;6.28;4.30;;;;;;;;;;5056328;28;20045;-67
2023/04/18 12:06:53;;;;;;;6.45;3.80;;;;;;;;;;5055613;28;20366;-66
2023/04/18 12:09:21;;;;;;;6.18;3.63;;;;;;;;;;5054461;28;20044;-66
2023/04/18 12:11:58;;;;;;;5.03;3.72;;;;;;;;;;5056303;28;20048;-67
2023/04/18 12:14:25;;;;;;;6.95;3.40;;;;;;;;;;5055609;28;20060;-67
2023/04/18 12:16:51;;;;;;;5.15;3.30;;;;;;;;;;5038734;28;21428;-67
2023/04/18 12:19:19;;;;;;;6.25;3.67;;;;;;;;;;5054836;28;20106;-68
2023/04/18 12:21:56;;;;;;;5.28;3.17;;;;;;;;;;5056002;28;20048;-68
2023/04/18 12:24:24;;;;;;;5.20;3.40;;;;;;;;;;5057947;28;21510;-68
2023/04/18 12:26:50;;;;;;;4.88;3.28;;;;;;;;;;5058922;28;20147;-68
2023/04/18 12:29:16;;;;;;;5.72;4.30;;;;;;;;;;5052969;28;20044;-68
2023/04/18 12:31:42;;;;;;;9.85;6.82;;;;;;;;;;5038836;28;20527;-68
2023/04/18 12:34:09;;;;;;;10.95;6.00;;;;;;;;;;5055241;28;20037;-68
2023/04/18 12:36:35;;;;;;;12.10;6.95;;;;;;;;;;5034297;28;20049;-68
2023/04/18 12:39:01;;;;;;;9.55;6.57;;;;;;;;;;5057111;28;20075;-68
2023/04/18 12:41:27;;;;;;;7.07;3.90;;;;;;;;;;5055713;28;20461;-68
2023/04/18 12:43:54;;;;;;;8.88;6.15;;;;;;;;;;5051230;28;20136;-68
2023/04/18 12:46:20;;;;;;;10.90;7.35;;;;;;;;;;5058672;28;21465;-68
2023/04/18 12:48:46;;;;;;;15.00;7.00;;;;;;;;;;5050877;28;20056;-68
2023/04/18 12:51:12;;;;;;;10.25;7.05;;;;;;;;;;5035638;28;20044;-68
2023/04/18 12:53:38;;;;;;;10.32;7.35;;;;;;;;;;5053091;28;20032;-68
2023/04/18 12:56:05;;;;;;;11.10;7.28;;;;;;;;;;5054871;28;20049;-68
2023/04/18 12:58:31;;;;;;;10.95;7.13;;;;;;;;;;5037525;28;20716;-68
2023/04/18 13:00:57;;;;;;;10.52;7.05;;;;;;;;;;5037410;28;20048;-68
2023/04/18 13:03:24;;;;;;;11.48;7.25;;;;;;;;;;5052686;28;20040;-68
2023/04/18 13:05:52;;;;;;;9.15;6.82;;;;;;;;;;5057352;28;20671;-68
2023/04/18 13:08:18;;;;;;;22.23;7.70;;;;;;;;;;5057993;28;20041;-68
2023/04/18 13:10:45;;;;;;;9.25;7.25;;;;;;;;;;5058311;28;20498;-67
2023/04/18 13:13:11;;;;;;;12.80;8.02;;;;;;;;;;5040303;28;20127;-67
2023/04/18 13:15:37;;;;;;;10.93;8.25;;;;;;;;;;5060220;28;20341;-67
2023/04/18 13:18:05;;;;;;;13.18;8.40;;;;;;;;;;5057054;28;21296;-68
2023/04/18 13:20:31;;;;;;;14.82;7.97;;;;;;;;;;5041983;28;20397;-67
2023/04/18 13:22:57;;;;;;;13.38;8.05;;;;;;;;;;5058560;28;20048;-75
2023/04/18 13:25:25;;;;;;;12.73;8.20;;;;;;;;;;5051154;28;20090;-68
2023/04/18 13:27:51;;;;;;;12.02;7.55;;;;;;;;;;5058102;28;20079;-68
2023/04/18 13:30:18;;;;;;;11.43;7.53;;;;;;;;;;5058343;28;20051;-68
2023/04/18 13:32:44;;;;;;;11.05;7.25;;;;;;;;;;5054370;28;20597;-68
2023/04/18 13:35:11;;;;;;;10.25;7.78;;;;;;;;;;5057564;28;20075;-68
2023/04/18 13:37:37;;;;;;;11.93;8.18;;;;;;;;;;5038878;28;20053;-67
2023/04/18 13:40:05;;;;;;;15.52;8.88;;;;;;;;;;5059201;28;20048;-68
2023/04/18 13:42:31;;;;;;;13.93;7.82;;;;;;;;;;5059721;28;20500;-68
2023/04/18 13:44:58;;;;;;;10.77;7.72;;;;;;;;;;5058464;28;20419;-68
2023/04/18 13:47:25;;;;;;;12.65;7.32;;;;;;;;;;5060748;28;20063;-66
2023/04/18 13:49:52;;;;;;;12.02;7.60;;;;;;;;;;5064089;28;20049;-67
2023/04/18 13:52:18;;;;;;;10.05;7.45;;;;;;;;;;5039765;28;20053;-67
2023/04/18 13:54:44;;;;;;;10.63;7.32;;;;;;;;;;5034531;28;20138;-67
2023/04/18 13:57:10;;;;;;;10.70;7.35;;;;;;;;;;5055727;28;20179;-67
2023/04/18 13:59:39;;;;;;;11.48;7.63;;;;;;;;;;5037598;28;20048;-67
2023/04/18 14:02:05;;;;;;;11.93;8.20;;;;;;;;;;5039141;28;20481;-67
2023/04/18 14:04:32;;;;;;;10.02;7.72;;;;;;;;;;5040971;28;20052;-67
2023/04/18 14:06:58;;;;;;;11.80;7.13;;;;;;;;;;5057277;28;20049;-67
2023/04/18 14:09:25;;;;;;;12.80;7.75;;;;;;;;;;5057245;28;20182;-67
2023/04/18 14:11:51;;;;;;;13.65;9.15;;;;;;;;;;5054797;28;20056;-68
2023/04/18 14:14:18;;;;;;;15.60;8.63;;;;;;;;;;5057771;28;20036;-68
2023/04/18 14:16:44;;;;;;;10.77;8.02;;;;;;;;;;5056935;28;20116;-68
2023/04/18 14:19:11;;;;;;;14.13;8.10;;;;;;;;;;5057766;28;20392;-65
2023/04/18 14:21:37;;;;;;;10.30;7.78;;;;;;;;;;5058074;28;20110;-68
2023/04/18 14:24:05;;;;;;;12.57;8.50;;;;;;;;;;5057529;28;20111;-68
2023/04/18 14:26:31;;;;;;;14.40;8.00;;;;;;;;;;5057758;28;20049;-68
2023/04/18 14:28:57;;;;;;;14.48;8.77;;;;;;;;;;5059977;28;20048;-68